Time;durP1;ratioP1;P1;durP2;ratioP2;P2;SDS_P1;SDS_P2;PMS_P1;PMS_P2;Temp;Humidity;BMP_temperature;BMP_pressure;BME280_temperature;BME280_humidity;BME280_pressure;Samples;Min_cycle;Max_cycle;Signal;HPM_P1;HPM_P2
2021/09/15 00:01:16;;;;;;;46.47;26.67;;;17.70;99.90;;;;;;5002731;28;20061;-85
2021/09/15 00:03:57;;;;;;;46.03;27.10;;;17.70;99.90;;;;;;4989844;28;20080;-85
2021/09/15 00:06:36;;;;;;;50.10;28.95;;;17.70;99.90;;;;;;5021308;28;20061;-84
2021/09/15 00:09:11;;;;;;;53.25;27.90;;;17.70;99.90;;;;;;5002124;28;20057;-84
2021/09/15 00:11:50;;;;;;;54.30;28.25;;;17.70;99.90;;;;;;5005721;28;20047;-85
2021/09/15 00:14:20;;;;;;;52.03;27.77;;;17.70;99.90;;;;;;5019177;28;20057;-84
2021/09/15 00:16:52;;;;;;;56.53;29.48;;;17.60;99.90;;;;;;5011579;28;20063;-84
2021/09/15 00:19:20;;;;;;;48.78;28.48;;;17.60;99.90;;;;;;5008462;28;20053;-85
2021/09/15 00:21:50;;;;;;;55.55;29.55;;;17.80;99.90;;;;;;4990109;28;20050;-85
2021/09/15 00:24:18;;;;;;;52.60;28.33;;;17.60;99.90;;;;;;5004546;28;20054;-84
2021/09/15 00:26:47;;;;;;;53.15;26.17;;;17.50;99.90;;;;;;5022580;28;20526;-85
2021/09/15 00:29:23;;;;;;;48.13;23.95;;;17.60;99.90;;;;;;5003716;28;20057;-84
2021/09/15 00:31:59;;;;;;;45.17;24.92;;;17.50;99.90;;;;;;5023558;28;20057;-84
2021/09/15 00:34:38;;;;;;;45.10;23.92;;;17.40;99.90;;;;;;5004899;28;20050;-84
2021/09/15 00:37:24;;;;;;;46.65;25.15;;;17.40;99.90;;;;;;5011827;28;20054;-84
2021/09/15 00:39:52;;;;;;;47.28;23.83;;;17.40;99.90;;;;;;4992723;28;20065;-84
2021/09/15 00:42:24;;;;;;;42.03;23.40;;;18.00;99.90;;;;;;5002376;28;20047;-85
2021/09/15 00:44:54;;;;;;;39.60;22.88;;;17.40;99.90;;;;;;5022452;28;20054;-85
2021/09/15 00:47:25;;;;;;;38.63;21.38;;;17.40;99.90;;;;;;4988561;28;20054;-85
2021/09/15 00:49:54;;;;;;;44.65;22.70;;;17.30;99.90;;;;;;5005770;28;20050;-84
2021/09/15 00:52:24;;;;;;;41.13;22.90;;;17.30;99.90;;;;;;5005853;28;20546;-84
2021/09/15 00:54:53;;;;;;;35.88;18.90;;;17.30;99.90;;;;;;5004516;28;20041;-85
2021/09/15 00:57:25;;;;;;;41.42;21.45;;;17.20;99.90;;;;;;5004730;28;20046;-84
2021/09/15 00:59:53;;;;;;;36.20;22.42;;;17.30;99.90;;;;;;4989628;28;20062;-85
2021/09/15 01:02:22;;;;;;;46.58;22.65;;;17.20;99.90;;;;;;5006028;28;20044;-84
2021/09/15 01:05:05;;;;;;;47.88;24.65;;;17.20;99.90;;;;;;5026527;28;20050;-84
2021/09/15 01:07:34;;;;;;;36.05;19.30;;;17.20;99.90;;;;;;5029855;28;20048;-84
2021/09/15 01:10:05;;;;;;;39.47;20.63;;;17.20;99.90;;;;;;4988082;28;20054;-85
2021/09/15 01:12:39;;;;;;;40.00;22.38;;;17.20;99.90;;;;;;5005281;28;20064;-84
2021/09/15 01:15:26;;;;;;;41.90;22.60;;;17.20;99.90;;;;;;5006423;28;20628;-85
2021/09/15 01:18:16;;;;;;;35.85;19.70;;;17.20;99.90;;;;;;5004766;28;20081;-86
2021/09/15 01:21:06;;;;;;;35.10;19.48;;;17.20;99.90;;;;;;5018703;28;20042;-84
2021/09/15 01:23:44;;;;;;;36.38;18.85;;;17.10;99.90;;;;;;5021281;28;20058;-85
2021/09/15 01:26:39;;;;;;;42.53;20.67;;;17.10;99.90;;;;;;5004467;28;20051;-85
2021/09/15 01:29:40;;;;;;;39.60;21.10;;;17.10;99.90;;;;;;4936179;28;20062;-84
2021/09/15 01:32:43;;;;;;;29.02;15.02;;;17.00;99.90;;;;;;5005640;28;20049;-86
2021/09/15 01:35:12;;;;;;;26.67;14.43;;;17.10;99.90;;;;;;5013132;28;20046;-84
2021/09/15 01:37:42;;;;;;;29.83;15.75;;;17.10;99.90;;;;;;4985613;28;20046;-86
2021/09/15 01:40:10;;;;;;;30.73;16.42;;;17.10;99.90;;;;;;5022016;28;20038;-86
2021/09/15 01:42:39;;;;;;;28.67;16.73;;;17.00;99.90;;;;;;5005610;28;20039;-85
2021/09/15 01:45:12;;;;;;;28.80;15.73;;;17.00;99.90;;;;;;5005012;28;20060;-86
2021/09/15 01:47:41;;;;;;;29.85;15.40;;;17.00;99.90;;;;;;5007900;28;20210;-86
2021/09/15 01:50:11;;;;;;;28.63;14.90;;;17.00;99.90;;;;;;5005794;28;20053;-86
2021/09/15 01:52:41;;;;;;;27.95;14.93;;;16.90;99.90;;;;;;5008908;28;20046;-85
2021/09/15 01:55:33;;;;;;;32.75;16.63;;;16.90;99.90;;;;;;4992772;28;20491;-85
2021/09/15 01:58:24;;;;;;;31.58;16.65;;;16.90;99.90;;;;;;4985361;28;20043;-86
2021/09/15 02:01:29;;;;;;;31.58;16.17;;;16.90;99.90;;;;;;5004806;28;20062;-86
2021/09/15 02:04:16;;;;;;;32.88;17.52;;;16.90;99.90;;;;;;4984073;28;20050;-86
2021/09/15 02:07:14;;;;;;;26.90;16.30;;;16.90;99.90;;;;;;5017100;28;20064;-86
2021/09/15 02:10:19;;;;;;;28.58;15.57;;;16.90;99.90;;;;;;4999924;28;20054;-86
2021/09/15 02:12:50;;;;;;;25.10;13.75;;;17.00;99.90;;;;;;4990309;28;20050;-85
2021/09/15 02:15:18;;;;;;;26.17;15.32;;;17.00;99.90;;;;;;5002694;28;20061;-86
2021/09/15 02:17:51;;;;;;;25.83;14.32;;;17.00;99.90;;;;;;5006971;28;20480;-85
2021/09/15 02:20:35;;;;;;;29.50;13.07;;;17.00;99.90;;;;;;4992392;28;20053;-87
2021/09/15 02:23:15;;;;;;;26.33;14.70;;;17.00;99.90;;;;;;5006594;28;20039;-85
2021/09/15 02:25:58;;;;;;;30.08;14.07;;;17.00;99.90;;;;;;5005041;28;20058;-86
2021/09/15 02:28:49;;;;;;;26.48;14.63;;;17.00;99.90;;;;;;5014756;28;20042;-86
2021/09/15 02:31:37;;;;;;;26.75;15.88;;;17.50;99.90;;;;;;5017833;28;20052;-84
2021/09/15 02:34:39;;;;;;;24.80;13.65;;;17.00;99.90;;;;;;5000795;28;20064;-85
2021/09/15 02:37:29;;;;;;;32.83;15.27;;;17.00;99.90;;;;;;5007377;28;20055;-87
2021/09/15 02:40:26;;;;;;;25.90;12.98;;;17.00;99.90;;;;;;5001670;28;20062;-85
2021/09/15 02:43:04;;;;;;;23.90;11.80;;;16.90;99.90;;;;;;4990738;28;20061;-85
2021/09/15 02:45:46;;;;;;;27.67;13.18;;;16.90;99.90;;;;;;4972421;28;20049;-86
2021/09/15 02:48:30;;;;;;;29.27;13.15;;;16.90;99.90;;;;;;5001202;28;20043;-84
2021/09/15 02:51:20;;;;;;;21.75;10.82;;;16.80;99.90;;;;;;5014575;28;20066;-85
2021/09/15 02:54:03;;;;;;;20.17;10.27;;;16.80;99.90;;;;;;4989037;28;20048;-85
2021/09/15 02:56:44;;;;;;;20.15;9.98;;;16.20;99.90;;;;;;4999509;28;20053;-85
2021/09/15 02:59:38;;;;;;;21.30;10.63;;;16.80;99.90;;;;;;4990225;28;20050;-86
2021/09/15 03:02:26;;;;;;;22.05;9.95;;;16.80;99.90;;;;;;4987759;28;20049;-85
2021/09/15 03:05:26;;;;;;;17.98;9.38;;;16.80;99.90;;;;;;4975548;28;20043;-86
2021/09/15 03:08:13;;;;;;;18.63;9.73;;;16.70;99.90;;;;;;4978627;28;20053;-86
2021/09/15 03:10:42;;;;;;;14.68;7.53;;;16.70;99.90;;;;;;4976020;28;20041;-85
2021/09/15 03:13:11;;;;;;;14.20;7.13;;;16.70;99.90;;;;;;4971513;28;20061;-85
2021/09/15 03:15:40;;;;;;;15.00;7.38;;;16.70;99.90;;;;;;4989313;28;20047;-86
2021/09/15 03:18:09;;;;;;;13.18;7.38;;;16.70;99.90;;;;;;4978030;28;20057;-85
2021/09/15 03:20:44;;;;;;;12.15;6.47;;;16.80;99.90;;;;;;4982220;28;20057;-86
2021/09/15 03:23:40;;;;;;;24.65;7.53;;;16.70;99.90;;;;;;4983629;28;20049;-85
2021/09/15 03:26:09;;;;;;;13.48;7.78;;;16.60;99.90;;;;;;4979716;28;20042;-86
2021/09/15 03:28:39;;;;;;;11.25;5.68;;;16.60;99.90;;;;;;4982710;28;20046;-86
2021/09/15 03:31:07;;;;;;;16.83;7.85;;;16.60;99.90;;;;;;4989081;28;20051;-86
2021/09/15 03:33:36;;;;;;;12.77;5.88;;;16.20;99.90;;;;;;4957425;28;20062;-86
2021/09/15 03:36:22;;;;;;;9.88;5.80;;;16.60;99.90;;;;;;5004455;28;20046;-86
2021/09/15 03:38:50;;;;;;;14.80;6.28;;;16.60;99.90;;;;;;4976619;28;20047;-86
2021/09/15 03:41:20;;;;;;;14.35;5.88;;;16.50;99.90;;;;;;4974723;28;20031;-87
2021/09/15 03:43:51;;;;;;;13.07;6.93;;;16.50;99.90;;;;;;4974785;28;20051;-86
2021/09/15 03:46:19;;;;;;;;;;;16.50;99.90;;;;;;4959008;28;20050;-85
2021/09/15 03:48:48;;;;;;;11.70;5.63;;;16.50;99.90;;;;;;4947538;28;19926;-86
2021/09/15 03:51:17;;;;;;;11.50;5.95;;;16.50;99.90;;;;;;4972785;28;20051;-86
2021/09/15 03:53:50;;;;;;;20.63;6.95;;;16.50;99.90;;;;;;4992102;28;20053;-85
2021/09/15 03:56:20;;;;;;;10.75;4.85;;;16.40;99.90;;;;;;5003551;28;20047;-85
2021/09/15 03:58:49;;;;;;;12.65;6.57;;;16.40;99.90;;;;;;4976956;28;20050;-85
2021/09/15 04:01:20;;;;;;;14.40;5.60;;;16.40;99.90;;;;;;4991695;28;20038;-85
2021/09/15 04:03:49;;;;;;;11.98;5.97;;;16.40;99.90;;;;;;5009461;28;20047;-84
2021/09/15 04:06:19;;;;;;;11.27;4.97;;;16.40;99.90;;;;;;5001353;28;20057;-85
2021/09/15 04:08:49;;;;;;;13.80;6.45;;;16.40;99.90;;;;;;5009317;28;20053;-86
2021/09/15 04:11:20;;;;;;;11.25;5.22;;;16.40;99.90;;;;;;5023910;28;20582;-85
2021/09/15 04:13:49;;;;;;;11.02;5.60;;;16.40;99.90;;;;;;5007286;28;20048;-86
2021/09/15 04:16:24;;;;;;;14.13;5.22;;;16.40;99.90;;;;;;5007374;28;20074;-86
2021/09/15 04:18:52;;;;;;;10.10;5.20;;;16.40;99.90;;;;;;4991419;28;20062;-86
2021/09/15 04:21:20;;;;;;;18.63;6.03;;;16.40;99.90;;;;;;4990425;28;20050;-86
2021/09/15 04:32:03;;;;;;;15.25;5.10;;;16.30;99.90;;;;;;4991785;28;20046;-86
2021/09/15 04:34:31;;;;;;;7.75;5.03;;;16.20;99.90;;;;;;5013668;28;20045;-86
2021/09/15 04:37:02;;;;;;;13.38;5.53;;;16.20;99.90;;;;;;5038021;28;20046;-86
2021/09/15 04:39:42;;;;;;;10.95;5.75;;;16.20;99.90;;;;;;5007649;28;20045;-85
2021/09/15 04:42:11;;;;;;;10.13;5.93;;;16.30;99.90;;;;;;4991698;28;20068;-86
2021/09/15 04:44:39;;;;;;;10.23;6.43;;;16.20;99.90;;;;;;4992348;28;20050;-86
2021/09/15 04:47:08;;;;;;;10.05;5.25;;;16.30;99.90;;;;;;5013735;28;20062;-86
2021/09/15 04:49:41;;;;;;;10.00;5.85;;;16.30;99.90;;;;;;5028238;28;20034;-85
2021/09/15 04:52:10;;;;;;;10.50;5.97;;;16.30;99.90;;;;;;5006197;28;20038;-86
2021/09/15 04:54:39;;;;;;;16.42;6.28;;;16.30;99.90;;;;;;5018418;28;20065;-86
2021/09/15 04:57:08;;;;;;;12.93;7.13;;;16.30;99.90;;;;;;5020088;28;20042;-86
2021/09/15 04:59:39;;;;;;;14.02;6.60;;;16.30;99.90;;;;;;5023810;28;20061;-88
2021/09/15 05:02:11;;;;;;;12.98;6.05;;;16.30;99.90;;;;;;4991632;28;20053;-86
2021/09/15 05:04:41;;;;;;;10.07;6.20;;;16.30;99.90;;;;;;5018478;28;20046;-86
2021/09/15 05:07:22;;;;;;;16.10;6.32;;;16.30;99.90;;;;;;4984294;28;20062;-86
2021/09/15 05:09:52;;;;;;;13.52;6.30;;;16.50;99.90;;;;;;5011205;28;20058;-86
2021/09/15 05:12:21;;;;;;;18.70;6.93;;;16.30;99.90;;;;;;5021064;28;20050;-85
2021/09/15 05:14:49;;;;;;;12.07;6.10;;;16.30;99.90;;;;;;5002475;28;20050;-86
2021/09/15 05:17:20;;;;;;;16.60;8.02;;;16.30;99.90;;;;;;4990018;28;20054;-86
2021/09/15 05:19:51;;;;;;;15.90;9.07;;;16.40;99.90;;;;;;4990638;28;20043;-87
2021/09/15 05:22:19;;;;;;;17.67;9.10;;;16.30;99.90;;;;;;5013943;28;20065;-86
2021/09/15 05:24:48;;;;;;;17.70;8.60;;;16.40;99.90;;;;;;4991421;28;20050;-85
2021/09/15 05:27:23;;;;;;;17.48;9.07;;;16.30;99.90;;;;;;4984290;28;20049;-86
2021/09/15 05:29:51;;;;;;;22.33;9.85;;;16.30;99.90;;;;;;5005742;28;20042;-86
2021/09/15 05:32:36;;;;;;;21.85;10.40;;;16.30;99.90;;;;;;4991755;28;20050;-85
2021/09/15 05:35:11;;;;;;;20.73;12.30;;;16.30;99.90;;;;;;4969585;28;20051;-84
2021/09/15 05:37:41;;;;;;;19.90;11.60;;;16.30;99.90;;;;;;4990556;28;20070;-85
2021/09/15 05:40:17;;;;;;;23.63;10.52;;;16.30;99.90;;;;;;5007116;28;20046;-85
2021/09/15 05:42:46;;;;;;;19.92;11.15;;;16.30;99.90;;;;;;5009856;28;20042;-85
2021/09/15 05:45:18;;;;;;;19.98;10.55;;;16.30;99.90;;;;;;5022187;28;20050;-85
2021/09/15 05:47:48;;;;;;;18.17;10.03;;;16.30;99.90;;;;;;5002251;28;20050;-84
2021/09/15 05:50:20;;;;;;;23.23;10.73;;;16.30;99.90;;;;;;5003528;28;20285;-83
2021/09/15 05:52:49;;;;;;;17.15;9.80;;;16.30;99.90;;;;;;5001482;28;20030;-84
2021/09/15 05:55:29;;;;;;;14.20;7.93;;;16.20;99.90;;;;;;5005972;28;20061;-85
2021/09/15 05:58:02;;;;;;;11.93;5.63;;;15.70;99.90;;;;;;4983205;28;20050;-83
2021/09/15 06:00:34;;;;;;;10.93;5.22;;;17.00;99.90;;;;;;5029931;28;20053;-85
2021/09/15 06:03:16;;;;;;;15.80;5.93;;;16.10;99.90;;;;;;5006308;28;20046;-86
2021/09/15 06:06:04;;;;;;;9.88;5.05;;;16.10;99.90;;;;;;5006280;28;20060;-86
2021/09/15 06:08:35;;;;;;;12.27;5.28;;;16.10;99.90;;;;;;5008038;28;20050;-83
2021/09/15 06:11:05;;;;;;;11.93;7.13;;;16.10;99.90;;;;;;5026171;28;20062;-84
2021/09/15 06:13:34;;;;;;;16.15;6.10;;;16.10;99.90;;;;;;4992981;28;20052;-84
2021/09/15 06:16:06;;;;;;;11.75;5.55;;;16.10;99.90;;;;;;4993447;28;20053;-84
2021/09/15 06:18:36;;;;;;;13.05;5.47;;;16.00;99.90;;;;;;5012268;28;20048;-85
2021/09/15 06:21:19;;;;;;;9.27;4.82;;;16.10;99.90;;;;;;5016692;28;20045;-85
2021/09/15 06:24:04;;;;;;;16.67;4.75;;;16.00;99.90;;;;;;5037558;28;20038;-85
2021/09/15 06:26:33;;;;;;;10.35;4.18;;;16.00;99.90;;;;;;5007116;28;20056;-85
2021/09/15 06:29:04;;;;;;;8.38;6.40;;;16.00;99.90;;;;;;5020858;28;20046;-84
2021/09/15 06:31:32;;;;;;;8.82;5.25;;;16.00;99.90;;;;;;5024055;28;20171;-83
2021/09/15 06:34:01;;;;;;;11.45;5.45;;;16.00;99.90;;;;;;5021223;28;20052;-81
2021/09/15 06:36:32;;;;;;;9.15;4.18;;;16.00;99.90;;;;;;5026108;28;20046;-82
2021/09/15 06:39:01;;;;;;;13.88;5.28;;;16.00;99.90;;;;;;5004593;28;20050;-82
2021/09/15 06:41:31;;;;;;;9.40;4.57;;;16.00;99.90;;;;;;5024342;28;20048;-82
2021/09/15 06:44:01;;;;;;;9.15;4.53;;;16.00;99.90;;;;;;5022107;28;20045;-85
2021/09/15 06:46:29;;;;;;;8.98;4.40;;;16.00;99.90;;;;;;4994457;28;20058;-79
2021/09/15 06:49:08;;;;;;;11.90;4.82;;;16.00;99.90;;;;;;5017265;28;20065;-87
2021/09/15 06:51:39;;;;;;;9.18;5.88;;;16.10;99.90;;;;;;5007799;28;20057;-90
2021/09/15 06:54:15;;;;;;;14.00;5.55;;;16.10;99.90;;;;;;5002387;28;20046;-90
2021/09/15 06:56:46;;;;;;;8.90;5.25;;;16.10;99.90;;;;;;5024460;28;20050;-90
2021/09/15 06:59:22;;;;;;;14.70;5.70;;;16.10;99.90;;;;;;5021842;28;20042;-88
2021/09/15 07:02:00;;;;;;;15.23;5.75;;;16.60;99.90;;;;;;4998931;28;20052;-90
2021/09/15 07:04:40;;;;;;;13.15;6.60;;;16.20;99.90;;;;;;5001451;28;20046;-90
2021/09/15 07:08:02;;;;;;;12.85;6.72;;;16.30;99.90;;;;;;5012428;28;20053;-91
2021/09/15 07:10:37;;;;;;;11.82;5.95;;;16.30;99.90;;;;;;5000245;28;20329;-89
2021/09/15 07:13:28;;;;;;;12.38;6.18;;;16.30;99.90;;;;;;5021598;28;20053;-89
2021/09/15 07:16:06;;;;;;;12.00;6.13;;;16.40;99.90;;;;;;5023639;28;20053;-90
2021/09/15 07:18:36;;;;;;;14.77;7.15;;;16.50;99.90;;;;;;5020865;28;20068;-91
2021/09/15 07:21:39;;;;;;;13.30;5.82;;;16.50;99.90;;;;;;4988010;28;20077;-92
2021/09/15 07:24:13;;;;;;;13.50;6.80;;;16.60;99.90;;;;;;5017643;28;20041;-91
2021/09/15 07:26:45;;;;;;;10.52;5.95;;;16.60;99.90;;;;;;5005656;28;20061;-90
2021/09/15 07:29:25;;;;;;;20.52;7.95;;;16.70;99.90;;;;;;4989277;28;20038;-91
2021/09/15 07:31:58;;;;;;;10.82;6.40;;;16.80;99.90;;;;;;5005274;28;20047;-87
2021/09/15 07:34:31;;;;;;;17.60;7.05;;;16.80;99.90;;;;;;5000844;28;20057;-90
2021/09/15 07:37:08;;;;;;;10.63;6.72;;;16.90;99.90;;;;;;4998537;28;20057;-90
2021/09/15 07:39:56;;;;;;;12.73;6.95;;;16.90;99.90;;;;;;5009166;28;20042;-89
2021/09/15 07:42:42;;;;;;;15.52;8.07;;;17.00;99.90;;;;;;4979459;28;20058;-90
2021/09/15 07:45:14;;;;;;;16.08;7.50;;;17.00;99.90;;;;;;5030630;28;20045;-90
2021/09/15 07:47:45;;;;;;;12.63;6.82;;;17.00;99.90;;;;;;5003920;28;20046;-88
2021/09/15 07:50:16;;;;;;;13.82;7.55;;;17.10;99.90;;;;;;5017795;28;20284;-89
2021/09/15 07:52:54;;;;;;;15.65;7.53;;;17.10;99.90;;;;;;5001344;28;20060;-90
2021/09/15 07:55:25;;;;;;;18.52;7.85;;;17.20;99.90;;;;;;4982700;28;20034;-89
2021/09/15 07:58:03;;;;;;;11.35;5.88;;;16.70;99.90;;;;;;4981359;28;20061;-89
2021/09/15 08:01:33;;;;;;;16.63;7.10;;;17.30;99.90;;;;;;5001685;28;20046;-90
2021/09/15 08:04:11;;;;;;;10.55;5.70;;;17.30;99.90;;;;;;4983764;28;20046;-89
2021/09/15 08:06:41;;;;;;;12.07;6.65;;;17.40;99.90;;;;;;5001392;28;20058;-91
2021/09/15 08:09:20;;;;;;;12.38;6.63;;;17.30;99.90;;;;;;5017502;28;20050;-90
2021/09/15 08:11:54;;;;;;;9.45;5.35;;;17.30;99.90;;;;;;4985545;28;20042;-90
2021/09/15 08:14:26;;;;;;;10.48;5.32;;;16.80;99.90;;;;;;5024461;28;20034;-88
2021/09/15 08:16:57;;;;;;;9.95;4.75;;;17.30;99.90;;;;;;4998759;28;20133;-90
2021/09/15 08:19:44;;;;;;;12.27;5.65;;;17.20;99.90;;;;;;4989795;28;20034;-90
2021/09/15 08:22:19;;;;;;;9.23;4.95;;;17.40;99.90;;;;;;4980327;28;20035;-88
2021/09/15 08:24:48;;;;;;;8.80;4.40;;;17.40;99.90;;;;;;4975145;28;20045;-89
2021/09/15 08:27:40;;;;;;;7.60;4.57;;;17.50;99.90;;;;;;5002686;28;20054;-90
2021/09/15 08:30:13;;;;;;;10.55;4.45;;;17.50;99.90;;;;;;4989666;28;20033;-90
2021/09/15 08:32:50;;;;;;;10.75;4.60;;;17.60;99.90;;;;;;4974683;28;20064;-90
2021/09/15 08:35:25;;;;;;;10.00;4.95;;;17.50;99.90;;;;;;4979785;28;20049;-85
2021/09/15 08:38:01;;;;;;;10.18;4.55;;;17.60;99.90;;;;;;4978533;28;20036;-88
2021/09/15 08:40:33;;;;;;;15.27;4.90;;;17.60;99.90;;;;;;4995815;28;20041;-89
2021/09/15 08:43:15;;;;;;;11.50;4.25;;;17.70;99.90;;;;;;5017485;28;20038;-90
2021/09/15 08:46:05;;;;;;;16.23;5.03;;;17.80;99.90;;;;;;5026062;23;20042;-86
2021/09/15 08:48:42;;;;;;;10.00;4.22;;;17.70;99.90;;;;;;5002883;28;20041;-90
2021/09/15 08:51:43;;;;;;;7.38;3.90;;;18.00;99.90;;;;;;4997766;28;20050;-87
2021/09/15 08:54:54;;;;;;;12.30;4.45;;;17.90;99.90;;;;;;5007983;28;20046;-90
2021/09/15 09:03:34;;;;;;;14.05;4.47;;;18.20;99.90;;;;;;4997956;28;20421;-86
2021/09/15 09:06:17;;;;;;;14.57;5.78;;;18.00;99.90;;;;;;5009175;28;20046;-89
2021/09/15 09:09:12;;;;;;;7.45;5.00;;;18.10;99.90;;;;;;5037717;23;20041;-89
2021/09/15 09:12:47;;;;;;;13.00;5.68;;;18.20;99.90;;;;;;5009973;28;20050;-88
2021/09/15 09:15:41;;;;;;;12.07;6.18;;;18.20;99.90;;;;;;5006704;28;20046;-91
2021/09/15 09:18:23;;;;;;;10.90;6.38;;;17.80;99.90;;;;;;4992952;28;20043;-90
2021/09/15 09:21:32;;;;;;;9.57;5.80;;;18.40;99.90;;;;;;5003133;28;20042;-89
2021/09/15 09:24:46;;;;;;;10.20;5.10;;;18.40;99.90;;;;;;4999062;28;20045;-91
2021/09/15 09:27:35;;;;;;;10.25;4.97;;;18.30;99.90;;;;;;4992574;28;20054;-86
2021/09/15 09:30:38;;;;;;;9.93;5.03;;;18.40;99.90;;;;;;5045850;23;20033;-89
2021/09/15 09:33:25;;;;;;;9.80;5.45;;;18.40;99.90;;;;;;5059519;28;20048;-90
2021/09/15 09:36:11;;;;;;;7.63;5.30;;;18.50;99.90;;;;;;5032043;23;20034;-88
2021/09/15 09:38:49;;;;;;;7.53;3.90;;;17.20;99.90;;;;;;5023603;28;20055;-89
2021/09/15 09:41:22;;;;;;;12.35;4.60;;;18.60;99.90;;;;;;5033705;28;20037;-88
2021/09/15 09:44:04;;;;;;;10.90;4.10;;;18.60;99.90;;;;;;5033983;28;20037;-87
2021/09/15 09:46:41;;;;;;;7.78;4.43;;;18.50;99.90;;;;;;5025721;23;20035;-87
2021/09/15 09:49:25;;;;;;;9.93;3.83;;;18.60;99.90;;;;;;4999373;28;20046;-86
2021/09/15 09:53:00;;;;;;;9.95;3.63;;;18.50;99.90;;;;;;5002970;28;20052;-88
2021/09/15 09:55:41;;;;;;;10.98;4.63;;;18.50;99.90;;;;;;5020766;28;20436;-88
2021/09/15 09:58:17;;;;;;;7.75;4.15;;;18.60;99.90;;;;;;5003262;28;20057;-89
2021/09/15 10:00:57;;;;;;;6.95;3.70;;;19.40;99.90;;;;;;4973724;28;20057;-87
2021/09/15 10:03:32;;;;;;;9.95;4.85;;;18.70;99.90;;;;;;5014518;23;20502;-90
2021/09/15 10:06:35;;;;;;;5.88;4.15;;;18.80;99.90;;;;;;4985443;28;20066;-90
2021/09/15 10:09:09;;;;;;;6.75;4.47;;;18.80;99.90;;;;;;5002646;23;20124;-90
2021/09/15 10:11:41;;;;;;;9.80;4.28;;;19.00;99.90;;;;;;4992411;28;20049;-91
2021/09/15 10:14:15;;;;;;;8.52;3.75;;;19.10;99.90;;;;;;5021095;28;20046;-93
2021/09/15 10:17:14;;;;;;;11.15;5.55;;;19.20;99.90;;;;;;4996830;28;20052;-91
2021/09/15 10:19:54;;;;;;;9.85;4.57;;;19.20;99.90;;;;;;5028418;28;20030;-92
2021/09/15 10:23:20;;;;;;;10.57;5.18;;;19.30;99.90;;;;;;4994802;28;20057;-89
2021/09/15 10:26:01;;;;;;;12.27;5.15;;;19.40;99.90;;;;;;5009155;28;20048;-91
2021/09/15 10:29:24;;;;;;;11.35;4.95;;;19.90;99.90;;;;;;4996040;28;20068;-91
2021/09/15 10:32:30;;;;;;;17.15;5.90;;;19.40;99.90;;;;;;5022980;28;20057;-92
2021/09/15 10:35:05;;;;;;;8.73;4.85;;;19.40;99.90;;;;;;4997988;28;20061;-90
2021/09/15 10:37:41;;;;;;;13.15;5.47;;;19.50;99.90;;;;;;5025288;28;20056;-90
2021/09/15 10:40:31;;;;;;;10.18;4.10;;;19.40;99.90;;;;;;4991389;28;20052;-87
2021/09/15 10:43:03;;;;;;;14.88;5.50;;;19.50;99.90;;;;;;4990180;28;20045;-92
2021/09/15 10:46:16;;;;;;;9.73;4.43;;;19.50;99.90;;;;;;5010864;28;20069;-91
2021/09/15 10:49:08;;;;;;;8.52;4.97;;;19.50;99.90;;;;;;4988427;28;20060;-87
2021/09/15 10:52:47;;;;;;;8.43;4.75;;;19.40;99.90;;;;;;4981829;28;20043;-92
2021/09/15 10:55:34;;;;;;;13.15;5.65;;;19.50;99.90;;;;;;4958540;28;20055;-90
2021/09/15 10:58:44;;;;;;;17.98;6.05;;;19.40;99.90;;;;;;4977207;28;20046;-91
2021/09/15 11:01:39;;;;;;;11.65;4.10;;;19.60;99.90;;;;;;4945572;28;20057;-91
2021/09/15 11:04:33;;;;;;;12.18;5.20;;;19.60;99.90;;;;;;4939259;28;20065;-91
2021/09/15 11:07:01;;;;;;;8.82;5.07;;;19.60;99.90;;;;;;4969922;28;20051;-91
2021/09/15 11:09:39;;;;;;;13.27;5.80;;;19.60;99.90;;;;;;4919204;29;20066;-92
2021/09/15 11:12:32;;;;;;;;;;;19.60;99.90;;;;;;4912497;29;20246;-91
2021/09/15 11:15:05;;;;;;;;;;;19.60;99.90;;;;;;4928691;28;19929;-92
2021/09/15 11:17:42;;;;;;;8.15;4.38;;;19.60;99.90;;;;;;4919813;29;20428;-91
2021/09/15 11:20:30;;;;;;;11.07;5.55;;;19.60;99.90;;;;;;4944524;29;20047;-91
2021/09/15 11:23:14;;;;;;;8.88;3.78;;;19.70;99.90;;;;;;4941959;28;20061;-91
2021/09/15 11:26:08;;;;;;;9.02;4.65;;;19.80;99.90;;;;;;4984648;28;20046;-90
2021/09/15 11:28:44;;;;;;;7.22;4.22;;;20.00;99.90;;;;;;4998913;28;20049;-92
2021/09/15 11:31:16;;;;;;;7.80;4.00;;;20.10;99.90;;;;;;4993106;28;20056;-91
2021/09/15 11:33:49;;;;;;;9.95;3.83;;;20.10;99.90;;;;;;5005388;28;20509;-90
2021/09/15 11:36:21;;;;;;;;;;;20.20;99.90;;;;;;4992704;28;20041;-91
2021/09/15 11:39:25;;;;;;;16.05;5.93;;;20.20;99.90;;;;;;5016032;28;19932;-90
2021/09/15 11:42:09;;;;;;;14.90;4.03;;;20.60;99.90;;;;;;5011183;28;20068;-91
2021/09/15 11:44:44;;;;;;;9.65;4.68;;;20.10;99.90;;;;;;4981288;28;20045;-91
2021/09/15 11:48:26;;;;;;;9.43;5.07;;;20.10;99.90;;;;;;4984039;28;20054;-91
2021/09/15 11:51:34;;;;;;;14.50;5.10;;;20.20;99.90;;;;;;5004122;28;20064;-92
2021/09/15 11:54:17;;;;;;;12.07;4.50;;;20.30;99.90;;;;;;4993992;28;20038;-92
2021/09/15 11:57:09;;;;;;;10.77;4.75;;;20.10;99.90;;;;;;4989689;28;20049;-92
2021/09/15 11:59:41;;;;;;;9.90;4.32;;;20.60;99.90;;;;;;4992393;28;20052;-92
2021/09/15 12:02:17;;;;;;;11.23;4.35;;;20.70;99.90;;;;;;4975483;28;20045;-92
2021/09/15 12:05:10;;;;;;;13.20;5.15;;;20.40;99.90;;;;;;5002739;28;20412;-92
2021/09/15 12:08:26;;;;;;;11.25;5.70;;;20.60;99.90;;;;;;5025511;28;20046;-91
2021/09/15 12:10:59;;;;;;;10.65;4.85;;;20.50;99.90;;;;;;4991390;28;20054;-91
2021/09/15 12:13:39;;;;;;;11.35;5.82;;;20.70;99.90;;;;;;4993860;28;20054;-91
2021/09/15 12:16:44;;;;;;;13.05;5.45;;;20.20;99.90;;;;;;4978998;28;20041;-91
2021/09/15 12:19:30;;;;;;;16.60;6.88;;;19.30;99.90;;;;;;4979048;28;20050;-92
2021/09/15 12:22:31;;;;;;;10.25;5.18;;;20.20;99.90;;;;;;5012065;28;20057;-91
2021/09/15 12:25:11;;;;;;;11.90;5.60;;;20.60;99.90;;;;;;4992992;28;20060;-91
2021/09/15 12:28:44;;;;;;;10.35;4.70;;;20.30;99.90;;;;;;5000527;28;20041;-91
2021/09/15 12:31:36;;;;;;;16.50;6.25;;;20.60;99.90;;;;;;5005153;28;20045;-91
2021/09/15 12:34:48;;;;;;;11.02;5.10;;;20.80;99.90;;;;;;4983411;28;20077;-92
2021/09/15 12:38:18;;;;;;;14.30;6.55;;;20.80;99.90;;;;;;5027005;28;20050;-92
2021/09/15 12:41:10;;;;;;;10.32;5.22;;;20.90;99.90;;;;;;5010931;28;20053;-91
2021/09/15 12:44:27;;;;;;;;;;;;;;;;;;;;;
2021/09/15 12:47:41;;;;;;;12.80;6.30;;;20.90;99.90;;;;;;5018784;28;20033;-91
2021/09/15 12:50:37;;;;;;;19.73;6.05;;;20.90;99.90;;;;;;5029763;28;20029;-91
2021/09/15 12:57:57;;;;;;;10.68;4.75;;;20.90;99.90;;;;;;4930008;26;20049;-87
2021/09/15 13:01:01;;;;;;;9.27;4.22;;;21.00;99.70;;;;;;5005897;28;20041;-89
2021/09/15 13:03:35;;;;;;;;;;;20.90;99.90;;;;;;5009472;28;20045;-86
2021/09/15 13:06:03;;;;;;;11.55;5.05;;;21.50;99.40;;;;;;5001660;28;19929;-82
2021/09/15 13:08:34;;;;;;;12.18;6.22;;;20.60;99.90;;;;;;5002058;28;20053;-81
2021/09/15 13:11:06;;;;;;;12.50;4.75;;;20.90;99.90;;;;;;5030147;28;20050;-82
2021/09/15 13:13:34;;;;;;;11.63;5.10;;;20.80;99.90;;;;;;5033033;28;20056;-83
2021/09/15 13:16:06;;;;;;;8.93;5.07;;;20.80;99.90;;;;;;5023002;28;20034;-81
2021/09/15 13:18:34;;;;;;;10.75;5.55;;;20.80;99.90;;;;;;5032798;28;20054;-81
2021/09/15 13:21:03;;;;;;;10.70;5.28;;;20.80;99.90;;;;;;5044471;28;20051;-81
2021/09/15 13:23:32;;;;;;;14.77;5.95;;;20.80;99.90;;;;;;5038783;28;20046;-86
2021/09/15 13:26:02;;;;;;;10.02;5.15;;;20.80;99.80;;;;;;5001027;28;20049;-86
2021/09/15 13:28:36;;;;;;;13.95;6.95;;;20.80;99.90;;;;;;5033848;28;20052;-88
2021/09/15 13:31:10;;;;;;;15.30;6.40;;;20.70;99.70;;;;;;5025256;23;20034;-93
2021/09/15 13:34:36;;;;;;;11.05;5.38;;;20.70;99.80;;;;;;5047456;28;20064;-92
2021/09/15 13:41:50;;;;;;;;;;;20.70;99.50;;;;;;5032942;28;20336;-92
2021/09/15 13:44:50;;;;;;;13.52;6.43;;;20.80;99.40;;;;;;5002419;28;19928;-93
2021/09/15 13:47:55;;;;;;;15.43;6.15;;;19.60;99.60;;;;;;5018906;28;20065;-91
2021/09/15 13:51:52;;;;;;;14.80;6.22;;;20.70;99.60;;;;;;5023311;28;20049;-92
2021/09/15 13:55:13;;;;;;;17.58;6.10;;;20.70;99.20;;;;;;4996189;28;20042;-92
2021/09/15 13:57:56;;;;;;;12.75;4.90;;;20.50;99.70;;;;;;5010746;28;20041;-91
2021/09/15 14:01:13;;;;;;;13.18;6.18;;;20.70;99.60;;;;;;5014706;28;20060;-91
2021/09/15 14:08:47;;;;;;;11.23;5.97;;;20.70;99.20;;;;;;5005139;28;20038;-85
2021/09/15 14:11:17;;;;;;;9.00;5.50;;;20.60;99.50;;;;;;5012467;28;20050;-89
2021/09/15 14:13:48;;;;;;;13.10;6.80;;;20.60;99.60;;;;;;5002633;28;20049;-92
2021/09/15 14:16:40;;;;;;;15.32;7.00;;;20.60;99.50;;;;;;4984138;28;20269;-87
2021/09/15 14:19:11;;;;;;;13.27;6.93;;;20.60;99.50;;;;;;4984699;28;20050;-86